Time;durP1;ratioP1;P1;durP2;ratioP2;P2;SDS_P1;SDS_P2;PMS_P1;PMS_P2;Temp;Humidity;BMP_temperature;BMP_pressure;BME280_temperature;BME280_humidity;BME280_pressure;Samples;Min_cycle;Max_cycle;Signal;HPM_P1;HPM_P2
2023/06/16 00:01:57;;;;;;;0.75;0.75;;;;;;;;;;5040536;28;57749;-60
2023/06/16 00:04:27;;;;;;;0.82;0.82;;;;;;;;;;5041778;28;58947;-61
2023/06/16 00:06:53;;;;;;;0.73;0.73;;;;;;;;;;5040266;28;58576;-61
2023/06/16 00:09:21;;;;;;;0.82;0.80;;;;;;;;;;5040598;28;59747;-61
2023/06/16 00:11:46;;;;;;;;;;;;;;;;;;5042899;28;59794;-61
2023/06/16 00:14:12;;;;;;;0.60;0.60;;;;;;;;;;5040162;28;58424;-61
2023/06/16 00:16:37;;;;;;;0.67;0.60;;;;;;;;;;5040437;28;58687;-62
2023/06/16 00:19:02;;;;;;;0.70;0.70;;;;;;;;;;5044719;28;58487;-61
2023/06/16 00:21:29;;;;;;;1.17;1.07;;;;;;;;;;5051830;28;58710;-61
2023/06/16 00:23:55;;;;;;;0.95;0.80;;;;;;;;;;5041706;28;58617;-62
2023/06/16 00:26:20;;;;;;;1.38;0.90;;;;;;;;;;5040885;28;58418;-61
2023/06/16 00:28:45;;;;;;;0.90;0.90;;;;;;;;;;5039088;28;58559;-61
2023/06/16 00:31:10;;;;;;;0.80;0.80;;;;;;;;;;5040873;28;58412;-61
2023/06/16 00:33:36;;;;;;;1.13;1.10;;;;;;;;;;5042050;28;58632;-61
2023/06/16 00:36:01;;;;;;;0.68;0.68;;;;;;;;;;5051128;28;60170;-58
2023/06/16 00:38:27;;;;;;;0.63;0.63;;;;;;;;;;5040914;28;59295;-61
2023/06/16 00:40:52;;;;;;;0.90;0.90;;;;;;;;;;5042795;28;59908;-61
2023/06/16 00:43:17;;;;;;;0.90;0.90;;;;;;;;;;5043619;28;58333;-62
2023/06/16 00:45:42;;;;;;;0.98;0.70;;;;;;;;;;5043066;28;58763;-62
2023/06/16 00:48:08;;;;;;;0.68;0.68;;;;;;;;;;5041967;28;58455;-61
2023/06/16 00:50:33;;;;;;;1.10;1.00;;;;;;;;;;5041473;28;58474;-61
2023/06/16 00:52:58;;;;;;;0.70;0.70;;;;;;;;;;5053397;28;58790;-62
2023/06/16 00:55:23;;;;;;;0.97;0.87;;;;;;;;;;5038386;28;58992;-61
2023/06/16 00:57:49;;;;;;;1.77;1.07;;;;;;;;;;5041306;28;58634;-59
2023/06/16 01:00:14;;;;;;;1.15;1.10;;;;;;;;;;5040115;28;58677;-61
2023/06/16 01:02:40;;;;;;;0.95;0.95;;;;;;;;;;5036796;28;59007;-61
2023/06/16 01:05:07;;;;;;;1.13;1.02;;;;;;;;;;5043813;28;58609;-61
2023/06/16 01:07:45;;;;;;;2.17;0.90;;;;;;;;;;5046970;28;58496;-63
2023/06/16 01:10:12;;;;;;;0.82;0.82;;;;;;;;;;5045504;28;58528;-61
2023/06/16 01:12:41;;;;;;;0.80;0.80;;;;;;;;;;5043045;28;58413;-61
2023/06/16 01:15:09;;;;;;;0.88;0.85;;;;;;;;;;5043872;28;59244;-62
2023/06/16 01:17:43;;;;;;;0.82;0.80;;;;;;;;;;5042304;28;58789;-61
2023/06/16 01:20:09;;;;;;;1.00;0.90;;;;;;;;;;5040791;28;58402;-61
2023/06/16 01:22:53;;;;;;;0.82;0.80;;;;;;;;;;5040320;28;58687;-61
2023/06/16 01:25:22;;;;;;;0.70;0.70;;;;;;;;;;5043850;28;58650;-62
2023/06/16 01:27:51;;;;;;;0.73;0.70;;;;;;;;;;5045844;28;58457;-62
2023/06/16 01:30:17;;;;;;;0.63;0.63;;;;;;;;;;5046984;28;59855;-61
2023/06/16 01:32:43;;;;;;;0.80;0.80;;;;;;;;;;5044406;28;58814;-61
2023/06/16 01:35:09;;;;;;;1.25;1.15;;;;;;;;;;5044026;28;58720;-61
2023/06/16 01:37:34;;;;;;;1.00;0.90;;;;;;;;;;5043658;28;58525;-62
2023/06/16 01:40:00;;;;;;;0.73;0.73;;;;;;;;;;5043895;28;58808;-61
2023/06/16 01:42:25;;;;;;;0.70;0.70;;;;;;;;;;5043831;28;59015;-61
2023/06/16 01:44:51;;;;;;;0.90;0.90;;;;;;;;;;5041212;28;58771;-61
2023/06/16 01:47:16;;;;;;;1.75;0.82;;;;;;;;;;5046062;28;58659;-61
2023/06/16 01:49:42;;;;;;;1.10;1.10;;;;;;;;;;5041273;28;58419;-60
2023/06/16 01:52:07;;;;;;;1.45;1.35;;;;;;;;;;5040114;28;58680;-61
2023/06/16 01:54:32;;;;;;;1.20;1.10;;;;;;;;;;5046135;28;58566;-61
2023/06/16 01:56:57;;;;;;;1.10;1.10;;;;;;;;;;5044940;28;58907;-62
2023/06/16 01:59:23;;;;;;;1.00;1.00;;;;;;;;;;5044128;28;58769;-61
2023/06/16 02:01:49;;;;;;;1.13;0.90;;;;;;;;;;5045250;28;58847;-61
2023/06/16 02:04:17;;;;;;;0.90;0.90;;;;;;;;;;5042048;28;58551;-61
2023/06/16 02:06:45;;;;;;;1.03;1.00;;;;;;;;;;5026049;28;58469;-61
2023/06/16 02:09:12;;;;;;;0.80;0.80;;;;;;;;;;5026928;28;58812;-61
2023/06/16 02:11:37;;;;;;;0.90;0.90;;;;;;;;;;5036818;28;59537;-61
2023/06/16 02:14:03;;;;;;;1.00;0.80;;;;;;;;;;5043016;28;58336;-62
2023/06/16 02:16:29;;;;;;;0.80;0.80;;;;;;;;;;5043963;28;58453;-61
2023/06/16 02:18:55;;;;;;;0.70;0.70;;;;;;;;;;5043667;28;58247;-61
2023/06/16 02:21:21;;;;;;;1.17;1.17;;;;;;;;;;5042788;28;58632;-61
2023/06/16 02:23:46;;;;;;;0.75;0.75;;;;;;;;;;5039304;28;58726;-61
2023/06/16 02:26:11;;;;;;;0.83;0.80;;;;;;;;;;5044847;28;58367;-61
2023/06/16 02:28:36;;;;;;;1.42;1.33;;;;;;;;;;5042966;28;58438;-62
2023/06/16 02:31:01;;;;;;;1.02;0.90;;;;;;;;;;5052802;28;58538;-62
2023/06/16 02:33:26;;;;;;;1.00;1.00;;;;;;;;;;5043438;28;58345;-61
2023/06/16 02:35:51;;;;;;;0.80;0.80;;;;;;;;;;5045255;28;58582;-61
2023/06/16 02:38:17;;;;;;;1.07;1.07;;;;;;;;;;5042781;28;58381;-62
2023/06/16 02:40:42;;;;;;;1.10;1.00;;;;;;;;;;5042775;28;59035;-61
2023/06/16 02:43:07;;;;;;;1.17;1.13;;;;;;;;;;5042622;28;58452;-61
2023/06/16 02:45:32;;;;;;;0.70;0.70;;;;;;;;;;5044983;28;58467;-61
2023/06/16 02:47:57;;;;;;;0.87;0.87;;;;;;;;;;5042883;28;58440;-62
2023/06/16 02:50:22;;;;;;;1.10;1.08;;;;;;;;;;5041935;28;58605;-61
2023/06/16 02:52:48;;;;;;;1.17;1.10;;;;;;;;;;5045818;28;58333;-61
2023/06/16 02:55:15;;;;;;;1.30;1.20;;;;;;;;;;5044587;28;58802;-61
2023/06/16 02:57:40;;;;;;;0.95;0.95;;;;;;;;;;5039869;28;58610;-61
2023/06/16 03:00:09;;;;;;;1.17;1.13;;;;;;;;;;5042694;28;58321;-61
2023/06/16 03:02:34;;;;;;;0.70;0.70;;;;;;;;;;5039202;28;58500;-61
2023/06/16 03:05:01;;;;;;;0.90;0.90;;;;;;;;;;5040114;28;58396;-61
2023/06/16 03:07:31;;;;;;;1.45;1.35;;;;;;;;;;5039639;28;58342;-61
2023/06/16 03:09:56;;;;;;;1.30;1.20;;;;;;;;;;5043520;28;58468;-59
2023/06/16 03:12:21;;;;;;;0.77;0.77;;;;;;;;;;5043044;28;58850;-61
2023/06/16 03:14:46;;;;;;;1.00;1.00;;;;;;;;;;5045312;28;58807;-61
2023/06/16 03:17:11;;;;;;;1.15;1.13;;;;;;;;;;5043732;28;59243;-61
2023/06/16 03:19:36;;;;;;;1.45;1.35;;;;;;;;;;5045182;28;58408;-62
2023/06/16 03:22:02;;;;;;;0.80;0.80;;;;;;;;;;5043407;28;58767;-61
2023/06/16 03:24:27;;;;;;;1.13;1.10;;;;;;;;;;5042491;28;58384;-61
2023/06/16 03:26:54;;;;;;;1.00;1.00;;;;;;;;;;5042577;28;58503;-61
2023/06/16 03:29:19;;;;;;;0.70;0.70;;;;;;;;;;5040064;28;59449;-62
2023/06/16 03:31:44;;;;;;;1.40;1.13;;;;;;;;;;5045135;28;58509;-61
2023/06/16 03:34:09;;;;;;;1.20;1.10;;;;;;;;;;5042356;28;58768;-61
2023/06/16 03:36:35;;;;;;;1.10;1.10;;;;;;;;;;5038131;28;58512;-62
2023/06/16 03:39:01;;;;;;;1.25;1.15;;;;;;;;;;5035622;28;58377;-61
2023/06/16 03:41:26;;;;;;;1.52;1.42;;;;;;;;;;5040384;28;59457;-61
2023/06/16 03:43:51;;;;;;;2.45;2.25;;;;;;;;;;5043807;28;58418;-62
2023/06/16 03:46:16;;;;;;;3.03;2.75;;;;;;;;;;5041608;28;58663;-61
2023/06/16 03:48:41;;;;;;;4.03;3.73;;;;;;;;;;5044471;28;58681;-61
2023/06/16 03:51:06;;;;;;;4.03;3.73;;;;;;;;;;5043446;28;58384;-61
2023/06/16 03:53:32;;;;;;;6.43;4.80;;;;;;;;;;5042591;28;58517;-59
2023/06/16 03:55:57;;;;;;;3.85;3.55;;;;;;;;;;5041455;28;58687;-61
2023/06/16 03:58:24;;;;;;;4.93;4.50;;;;;;;;;;5042550;28;58354;-61
2023/06/16 04:00:49;;;;;;;4.72;4.32;;;;;;;;;;5043371;28;59334;-61
2023/06/16 04:03:15;;;;;;;4.27;3.97;;;;;;;;;;5041134;28;59107;-62
2023/06/16 04:05:40;;;;;;;3.30;3.00;;;;;;;;;;5041769;28;59914;-61
2023/06/16 04:08:06;;;;;;;3.90;3.60;;;;;;;;;;5039147;28;58551;-62
2023/06/16 04:10:31;;;;;;;4.45;3.83;;;;;;;;;;5038687;28;59194;-62
2023/06/16 04:12:56;;;;;;;4.50;4.10;;;;;;;;;;5040708;28;58449;-62
2023/06/16 04:15:22;;;;;;;4.38;3.60;;;;;;;;;;5040544;28;58456;-61
2023/06/16 04:17:47;;;;;;;5.85;4.75;;;;;;;;;;5039044;28;58598;-61
2023/06/16 04:20:12;;;;;;;4.05;3.75;;;;;;;;;;5041528;28;58851;-61
2023/06/16 04:22:38;;;;;;;4.68;4.28;;;;;;;;;;5040708;28;58490;-62
2023/06/16 04:25:03;;;;;;;4.10;3.80;;;;;;;;;;5041796;28;58584;-62
2023/06/16 04:27:32;;;;;;;4.90;4.43;;;;;;;;;;5041396;28;58519;-61
2023/06/16 04:29:57;;;;;;;8.48;6.90;;;;;;;;;;5037383;28;58599;-62
2023/06/16 04:32:22;;;;;;;9.05;6.85;;;;;;;;;;5036028;28;58587;-61
2023/06/16 04:34:49;;;;;;;9.90;8.25;;;;;;;;;;5041565;28;58472;-62
2023/06/16 04:37:15;;;;;;;8.93;8.13;;;;;;;;;;5039904;28;58483;-62
2023/06/16 04:39:40;;;;;;;10.55;7.82;;;;;;;;;;5042844;28;58776;-62
2023/06/16 04:42:07;;;;;;;12.15;8.90;;;;;;;;;;5041409;28;59469;-62
2023/06/16 04:44:33;;;;;;;9.73;8.57;;;;;;;;;;5042616;28;58671;-62
2023/06/16 04:46:58;;;;;;;8.40;6.80;;;;;;;;;;5040661;28;58802;-62
2023/06/16 04:49:23;;;;;;;8.57;6.97;;;;;;;;;;5044296;28;58905;-62
2023/06/16 04:51:48;;;;;;;9.63;7.15;;;;;;;;;;5044519;28;58380;-63
2023/06/16 04:54:13;;;;;;;8.07;7.10;;;;;;;;;;5029791;28;59059;-63
2023/06/16 04:56:39;;;;;;;7.53;6.82;;;;;;;;;;5025723;28;58684;-62
2023/06/16 04:59:04;;;;;;;6.65;5.30;;;;;;;;;;5025088;28;59132;-63
2023/06/16 05:01:30;;;;;;;5.70;5.03;;;;;;;;;;5024696;28;58955;-63
2023/06/16 05:03:55;;;;;;;6.35;5.85;;;;;;;;;;5027598;28;58761;-63
2023/06/16 05:06:20;;;;;;;17.30;6.40;;;;;;;;;;5029440;28;59053;-63
2023/06/16 05:08:45;;;;;;;5.87;4.30;;;;;;;;;;5037909;28;58429;-63
2023/06/16 05:11:10;;;;;;;6.63;5.03;;;;;;;;;;5046039;28;58337;-63
2023/06/16 05:13:36;;;;;;;5.60;5.10;;;;;;;;;;5044704;28;58672;-63
2023/06/16 05:16:01;;;;;;;5.13;4.65;;;;;;;;;;5045839;28;58306;-63
2023/06/16 05:18:26;;;;;;;5.53;5.03;;;;;;;;;;5041627;28;58348;-63
2023/06/16 05:20:51;;;;;;;4.78;4.38;;;;;;;;;;5043921;28;58473;-63
2023/06/16 05:23:16;;;;;;;6.38;4.10;;;;;;;;;;5046692;28;58236;-63
2023/06/16 05:25:41;;;;;;;4.97;4.57;;;;;;;;;;5054060;28;58842;-63
2023/06/16 05:28:07;;;;;;;6.00;5.10;;;;;;;;;;5046151;28;59282;-63
2023/06/16 05:30:33;;;;;;;4.60;4.20;;;;;;;;;;5046081;28;58364;-60
2023/06/16 05:32:58;;;;;;;3.80;3.50;;;;;;;;;;5043944;28;58418;-62
2023/06/16 05:35:23;;;;;;;3.65;3.35;;;;;;;;;;5043707;28;58683;-63
2023/06/16 05:37:48;;;;;;;4.57;4.00;;;;;;;;;;5045819;28;58809;-63
2023/06/16 05:40:13;;;;;;;3.80;3.40;;;;;;;;;;5045047;28;58397;-63
2023/06/16 05:42:39;;;;;;;4.33;3.93;;;;;;;;;;5044215;28;58562;-63
2023/06/16 05:45:05;;;;;;;3.80;3.10;;;;;;;;;;5042684;28;58412;-61
2023/06/16 05:47:30;;;;;;;3.72;3.13;;;;;;;;;;5044545;28;58648;-61
2023/06/16 05:49:57;;;;;;;3.60;3.33;;;;;;;;;;5043121;28;59304;-63
2023/06/16 05:52:22;;;;;;;3.80;3.50;;;;;;;;;;5042583;28;58599;-63
2023/06/16 05:54:47;;;;;;;2.85;2.65;;;;;;;;;;5045277;28;58389;-63
2023/06/16 05:57:12;;;;;;;2.97;2.67;;;;;;;;;;5043852;28;58820;-63
2023/06/16 05:59:37;;;;;;;3.13;2.93;;;;;;;;;;5041410;28;58571;-63
2023/06/16 06:02:02;;;;;;;4.07;3.07;;;;;;;;;;5046839;28;58815;-63
2023/06/16 06:04:29;;;;;;;3.07;2.70;;;;;;;;;;5043096;28;58372;-63
2023/06/16 06:06:54;;;;;;;2.90;2.33;;;;;;;;;;5044057;28;58665;-63
2023/06/16 06:09:19;;;;;;;2.92;2.72;;;;;;;;;;5044682;28;58676;-63
2023/06/16 06:11:45;;;;;;;2.80;2.60;;;;;;;;;;5041936;28;58381;-63
2023/06/16 06:14:11;;;;;;;2.25;2.05;;;;;;;;;;5043396;28;58850;-62
2023/06/16 06:16:36;;;;;;;2.40;2.20;;;;;;;;;;5041946;28;58869;-63
2023/06/16 06:19:01;;;;;;;2.60;2.40;;;;;;;;;;5042689;28;58340;-63
2023/06/16 06:21:26;;;;;;;2.67;2.47;;;;;;;;;;5044541;28;58456;-63
2023/06/16 06:23:51;;;;;;;2.60;2.45;;;;;;;;;;5042812;28;58826;-63
2023/06/16 06:26:17;;;;;;;2.20;2.00;;;;;;;;;;5044037;28;58689;-63
2023/06/16 06:28:42;;;;;;;2.63;2.37;;;;;;;;;;5039877;28;58395;-63
2023/06/16 06:31:07;;;;;;;2.80;2.55;;;;;;;;;;5045634;28;58329;-63
2023/06/16 06:33:32;;;;;;;2.70;2.50;;;;;;;;;;5043972;28;58731;-60
2023/06/16 06:35:57;;;;;;;2.23;2.07;;;;;;;;;;5043880;28;58592;-63
2023/06/16 06:38:22;;;;;;;2.22;2.08;;;;;;;;;;5042291;28;58785;-63
2023/06/16 06:40:48;;;;;;;2.47;2.13;;;;;;;;;;5043079;28;58741;-63
2023/06/16 06:43:13;;;;;;;2.03;1.92;;;;;;;;;;5041296;28;58972;-63
2023/06/16 06:45:38;;;;;;;2.40;2.20;;;;;;;;;;5041634;28;58366;-63
2023/06/16 06:48:03;;;;;;;2.08;1.90;;;;;;;;;;5045489;28;58721;-63
2023/06/16 06:50:28;;;;;;;1.57;1.47;;;;;;;;;;5045142;28;57951;-63
2023/06/16 06:52:53;;;;;;;2.10;2.00;;;;;;;;;;5044142;28;58332;-63
2023/06/16 06:55:19;;;;;;;1.73;1.63;;;;;;;;;;5046581;28;58638;-63
2023/06/16 06:57:44;;;;;;;2.13;2.03;;;;;;;;;;5028817;28;58403;-63
2023/06/16 07:00:10;;;;;;;1.88;1.70;;;;;;;;;;5040907;28;58292;-63
2023/06/16 07:02:35;;;;;;;1.88;1.75;;;;;;;;;;5040477;28;58903;-61
2023/06/16 07:05:00;;;;;;;1.57;1.47;;;;;;;;;;5037973;28;58545;-63
2023/06/16 07:07:26;;;;;;;2.10;2.00;;;;;;;;;;5021138;28;58766;-63
2023/06/16 07:09:51;;;;;;;1.70;1.60;;;;;;;;;;5029583;28;58663;-63
2023/06/16 07:12:16;;;;;;;1.73;1.60;;;;;;;;;;5026898;28;58449;-63
2023/06/16 07:14:41;;;;;;;1.97;1.87;;;;;;;;;;5027914;28;58570;-62
2023/06/16 07:17:06;;;;;;;1.70;1.60;;;;;;;;;;5026399;28;58701;-63
2023/06/16 07:19:32;;;;;;;1.50;1.40;;;;;;;;;;5024754;28;58478;-63
2023/06/16 07:21:57;;;;;;;1.77;1.67;;;;;;;;;;5025582;28;58508;-63
2023/06/16 07:24:23;;;;;;;1.90;1.80;;;;;;;;;;5022428;28;58547;-63
2023/06/16 07:26:48;;;;;;;1.87;1.77;;;;;;;;;;5027585;28;58431;-63
2023/06/16 08:51:26;;;;;;;1.30;1.20;;;;;;;;;;5022595;28;58340;-63
2023/06/16 08:53:54;;;;;;;1.60;1.50;;;;;;;;;;5032403;28;59343;-63
2023/06/16 08:56:19;;;;;;;;;;;;;;;;;;5039631;28;58343;-63
2023/06/16 08:58:46;;;;;;;0.98;0.98;;;;;;;;;;5039454;28;59164;-63
2023/06/16 09:01:12;;;;;;;1.60;1.50;;;;;;;;;;5046523;28;58437;-63
2023/06/16 09:03:37;;;;;;;1.40;1.30;;;;;;;;;;5042838;28;59232;-63
2023/06/16 09:06:02;;;;;;;1.30;1.20;;;;;;;;;;5042183;28;58446;-63
2023/06/16 09:08:28;;;;;;;1.60;1.50;;;;;;;;;;5042947;28;58642;-63
2023/06/16 09:10:55;;;;;;;1.08;1.08;;;;;;;;;;5042184;28;59088;-63
2023/06/16 09:13:21;;;;;;;1.08;1.08;;;;;;;;;;5024264;28;58591;-63
2023/06/16 09:15:47;;;;;;;1.48;1.38;;;;;;;;;;5022519;28;58377;-63
2023/06/16 09:18:14;;;;;;;1.38;1.27;;;;;;;;;;5024646;28;58289;-63
2023/06/16 09:20:40;;;;;;;1.23;1.23;;;;;;;;;;5022494;28;58475;-63
2023/06/16 09:23:05;;;;;;;1.38;1.27;;;;;;;;;;5025277;28;58779;-64
2023/06/16 09:25:31;;;;;;;1.30;1.20;;;;;;;;;;5024971;28;58491;-63
2023/06/16 09:27:56;;;;;;;1.40;1.30;;;;;;;;;;5023177;28;58622;-63
2023/06/16 09:30:21;;;;;;;1.33;1.23;;;;;;;;;;5024089;28;58142;-63
2023/06/16 09:32:47;;;;;;;1.03;1.03;;;;;;;;;;5022842;28;58860;-63
2023/06/16 09:35:16;;;;;;;1.25;1.23;;;;;;;;;;5023959;28;58453;-63
2023/06/16 09:37:43;;;;;;;1.30;1.20;;;;;;;;;;5026616;28;59581;-63
2023/06/16 09:40:09;;;;;;;1.20;1.10;;;;;;;;;;5022179;28;58610;-62
2023/06/16 09:42:34;;;;;;;1.40;1.30;;;;;;;;;;5024954;28;58571;-63
2023/06/16 09:44:59;;;;;;;1.50;1.40;;;;;;;;;;5024395;28;58882;-63
2023/06/16 09:47:24;;;;;;;1.33;1.23;;;;;;;;;;5023504;28;58949;-61
2023/06/16 09:49:52;;;;;;;1.30;1.10;;;;;;;;;;5022858;28;59256;-63
2023/06/16 09:52:17;;;;;;;1.13;1.13;;;;;;;;;;5023481;28;58994;-63
2023/06/16 09:54:42;;;;;;;1.63;1.52;;;;;;;;;;5023864;28;58758;-60
2023/06/16 09:57:08;;;;;;;1.30;1.20;;;;;;;;;;5025116;28;58290;-63
2023/06/16 09:59:33;;;;;;;1.23;1.23;;;;;;;;;;5023140;28;58489;-61
2023/06/16 10:01:58;;;;;;;1.13;1.10;;;;;;;;;;5024016;28;58416;-60
2023/06/16 10:04:24;;;;;;;1.50;1.40;;;;;;;;;;5021182;28;58986;-63
2023/06/16 10:06:49;;;;;;;1.50;1.40;;;;;;;;;;5023556;28;58401;-61
2023/06/16 10:09:19;;;;;;;1.30;1.20;;;;;;;;;;5025298;28;58904;-62
2023/06/16 10:11:46;;;;;;;0.95;0.95;;;;;;;;;;5023446;28;58474;-63
2023/06/16 10:14:12;;;;;;;1.40;1.30;;;;;;;;;;5024428;28;58420;-63
2023/06/16 10:16:37;;;;;;;1.27;1.25;;;;;;;;;;5019121;28;59103;-63
2023/06/16 10:19:04;;;;;;;1.20;1.20;;;;;;;;;;5023609;28;58762;-63
2023/06/16 10:21:30;;;;;;;1.45;1.40;;;;;;;;;;5024738;28;58544;-63
2023/06/16 10:23:55;;;;;;;0.95;0.95;;;;;;;;;;5024625;28;58764;-63
2023/06/16 10:26:20;;;;;;;1.13;1.10;;;;;;;;;;5021653;28;58445;-63
2023/06/16 10:28:46;;;;;;;1.37;1.33;;;;;;;;;;5022412;28;58454;-63
2023/06/16 10:31:12;;;;;;;1.37;1.30;;;;;;;;;;5021569;28;58560;-63
2023/06/16 10:33:53;;;;;;;1.02;1.02;;;;;;;;;;5020781;28;58654;-63
2023/06/16 10:36:38;;;;;;;1.40;1.30;;;;;;;;;;5023255;28;58636;-63
2023/06/16 10:39:07;;;;;;;1.42;1.33;;;;;;;;;;5021363;28;58636;-63
2023/06/16 10:41:33;;;;;;;1.10;1.10;;;;;;;;;;5023511;28;58647;-61
2023/06/16 10:44:20;;;;;;;1.70;1.60;;;;;;;;;;5024876;28;58544;-62
2023/06/16 10:47:05;;;;;;;1.20;1.20;;;;;;;;;;5023961;28;58553;-63
2023/06/16 10:49:31;;;;;;;1.48;1.38;;;;;;;;;;5021089;28;59013;-63
2023/06/16 10:51:58;;;;;;;1.15;1.10;;;;;;;;;;5021691;28;58796;-63
2023/06/16 10:54:32;;;;;;;1.48;1.40;;;;;;;;;;5021811;28;58840;-63
2023/06/16 10:57:04;;;;;;;1.45;1.35;;;;;;;;;;5024045;28;58961;-64
2023/06/16 10:59:29;;;;;;;1.50;1.40;;;;;;;;;;5023699;28;58485;-63
2023/06/16 11:01:56;;;;;;;1.05;1.05;;;;;;;;;;5021472;28;58435;-63
2023/06/16 11:04:22;;;;;;;1.77;1.67;;;;;;;;;;5022698;28;59624;-62
2023/06/16 11:07:11;;;;;;;1.42;1.33;;;;;;;;;;5020978;28;58636;-63
2023/06/16 11:09:36;;;;;;;1.33;1.23;;;;;;;;;;5020895;28;58346;-63
2023/06/16 11:12:01;;;;;;;1.37;1.30;;;;;;;;;;5023148;28;58231;-63
2023/06/16 11:14:27;;;;;;;1.13;1.08;;;;;;;;;;5022584;28;58314;-61
2023/06/16 11:16:52;;;;;;;1.48;1.38;;;;;;;;;;5023445;28;58790;-62
2023/06/16 11:19:17;;;;;;;1.50;1.40;;;;;;;;;;5023126;28;58303;-63
2023/06/16 11:21:43;;;;;;;1.05;1.05;;;;;;;;;;5024198;28;58752;-63
2023/06/16 11:24:09;;;;;;;1.27;1.17;;;;;;;;;;5023643;28;58616;-63
2023/06/16 11:26:35;;;;;;;1.17;1.17;;;;;;;;;;5022240;28;59513;-62
2023/06/16 11:29:01;;;;;;;1.35;1.27;;;;;;;;;;5022677;28;58480;-63
2023/06/16 11:31:26;;;;;;;1.60;1.47;;;;;;;;;;5022995;28;58519;-63
2023/06/16 11:33:53;;;;;;;1.38;1.27;;;;;;;;;;5021509;28;58604;-63
2023/06/16 11:36:20;;;;;;;1.67;1.57;;;;;;;;;;5023352;28;58836;-63
2023/06/16 11:38:46;;;;;;;1.23;1.13;;;;;;;;;;5019095;28;58527;-63
2023/06/16 11:41:15;;;;;;;1.00;1.00;;;;;;;;;;5019454;28;58792;-63
2023/06/16 11:43:41;;;;;;;1.00;1.00;;;;;;;;;;5016299;28;59111;-63
2023/06/16 11:46:06;;;;;;;1.73;1.63;;;;;;;;;;5017194;28;58357;-62
2023/06/16 11:48:31;;;;;;;1.00;1.00;;;;;;;;;;5037566;28;60196;-63
2023/06/16 11:50:57;;;;;;;1.33;1.23;;;;;;;;;;5038442;28;58466;-63
2023/06/16 11:53:22;;;;;;;1.30;1.20;;;;;;;;;;5039733;28;58693;-63
2023/06/16 11:55:47;;;;;;;1.50;1.40;;;;;;;;;;5036462;28;58718;-63
2023/06/16 11:58:13;;;;;;;1.20;1.20;;;;;;;;;;5019982;28;59059;-63
2023/06/16 12:00:38;;;;;;;1.38;1.27;;;;;;;;;;5022665;28;58530;-63
2023/06/16 12:03:04;;;;;;;1.30;1.20;;;;;;;;;;5024217;28;59110;-63
2023/06/16 12:05:30;;;;;;;1.35;1.30;;;;;;;;;;5032778;28;58436;-63
2023/06/16 12:07:55;;;;;;;1.50;1.40;;;;;;;;;;5035249;28;58723;-64
2023/06/16 12:10:22;;;;;;;1.17;1.17;;;;;;;;;;5017258;28;58791;-64
2023/06/16 12:12:47;;;;;;;3.17;1.50;;;;;;;;;;5018707;28;58780;-64
2023/06/16 12:15:13;;;;;;;2.27;1.57;;;;;;;;;;5015953;28;59003;-62
2023/06/16 12:17:39;;;;;;;7.22;1.88;;;;;;;;;;5016878;28;58548;-65
2023/06/16 12:20:05;;;;;;;4.80;1.50;;;;;;;;;;5019309;28;58484;-70
2023/06/16 12:22:40;;;;;;;3.58;1.48;;;;;;;;;;5018499;28;58949;-61
2023/06/16 12:25:13;;;;;;;2.92;1.50;;;;;;;;;;5016592;28;58777;-62
2023/06/16 12:27:38;;;;;;;2.10;1.58;;;;;;;;;;5017802;28;58067;-63
2023/06/16 12:30:04;;;;;;;5.22;1.98;;;;;;;;;;5017604;28;59052;-65
2023/06/16 12:32:30;;;;;;;6.85;1.50;;;;;;;;;;5013908;28;58726;-63
2023/06/16 12:34:55;;;;;;;3.97;2.05;;;;;;;;;;5019371;28;58782;-64
2023/06/16 12:37:24;;;;;;;5.75;2.45;;;;;;;;;;5019752;28;59042;-63
2023/06/16 12:40:16;;;;;;;3.95;1.67;;;;;;;;;;5022165;28;58412;-64
2023/06/16 12:42:41;;;;;;;3.10;2.08;;;;;;;;;;5019700;28;64691;-63
2023/06/16 12:45:07;;;;;;;2.63;1.60;;;;;;;;;;5025191;28;59317;-63
2023/06/16 12:47:33;;;;;;;1.88;1.60;;;;;;;;;;5024973;28;58286;-64
2023/06/16 12:49:59;;;;;;;5.18;1.90;;;;;;;;;;5019949;28;59087;-64
2023/06/16 12:52:25;;;;;;;1.75;1.65;;;;;;;;;;5020307;28;58299;-63
2023/06/16 12:54:51;;;;;;;1.85;1.75;;;;;;;;;;5021763;28;59069;-64
2023/06/16 12:57:16;;;;;;;1.90;1.73;;;;;;;;;;5019696;28;58396;-63
2023/06/16 12:59:41;;;;;;;2.92;1.75;;;;;;;;;;5020871;28;58297;-64
2023/06/16 13:02:07;;;;;;;1.83;1.73;;;;;;;;;;5024046;28;59930;-64
2023/06/16 13:04:32;;;;;;;1.60;1.50;;;;;;;;;;5023905;28;58728;-64
2023/06/16 13:06:57;;;;;;;12.57;1.77;;;;;;;;;;5026526;28;58808;-64
2023/06/16 13:09:22;;;;;;;1.67;1.57;;;;;;;;;;5024978;28;58791;-64
2023/06/16 13:11:48;;;;;;;4.70;1.37;;;;;;;;;;5024809;28;58370;-64
2023/06/16 13:14:14;;;;;;;2.40;1.70;;;;;;;;;;5023685;28;58724;-63
2023/06/16 13:16:39;;;;;;;2.05;1.45;;;;;;;;;;5024991;28;59085;-64
2023/06/16 13:19:04;;;;;;;4.57;1.93;;;;;;;;;;5027106;28;58492;-63
2023/06/16 13:21:30;;;;;;;1.50;1.40;;;;;;;;;;5026237;28;58916;-64
2023/06/16 13:23:55;;;;;;;1.60;1.50;;;;;;;;;;5023162;28;58741;-66
2023/06/16 13:26:20;;;;;;;3.13;2.13;;;;;;;;;;5027339;28;58389;-66
2023/06/16 13:28:47;;;;;;;1.60;1.50;;;;;;;;;;5024498;28;58842;-67
2023/06/16 13:31:13;;;;;;;3.83;2.03;;;;;;;;;;5026006;28;58398;-67
2023/06/16 13:33:38;;;;;;;2.17;1.63;;;;;;;;;;5022813;28;58469;-66
2023/06/16 13:36:07;;;;;;;1.77;1.67;;;;;;;;;;5024430;28;59349;-67
2023/06/16 13:38:32;;;;;;;1.90;1.55;;;;;;;;;;5021657;28;58640;-67
2023/06/16 13:40:57;;;;;;;2.67;1.40;;;;;;;;;;5024923;28;58721;-68
2023/06/16 13:43:22;;;;;;;3.37;2.33;;;;;;;;;;5023040;28;58458;-67
2023/06/16 13:45:48;;;;;;;3.87;1.63;;;;;;;;;;5025014;28;58324;-66
2023/06/16 13:48:15;;;;;;;1.65;1.52;;;;;;;;;;5026219;28;58790;-67
2023/06/16 13:50:40;;;;;;;5.13;1.60;;;;;;;;;;5023385;28;58481;-66
2023/06/16 13:53:06;;;;;;;1.50;1.40;;;;;;;;;;5025168;28;58740;-67
2023/06/16 13:55:32;;;;;;;3.17;2.10;;;;;;;;;;5025151;28;59120;-65
2023/06/16 13:57:57;;;;;;;1.58;1.20;;;;;;;;;;5023382;28;58419;-67
2023/06/16 14:00:22;;;;;;;1.80;1.70;;;;;;;;;;5026755;28;58488;-66
2023/06/16 14:02:47;;;;;;;2.13;1.77;;;;;;;;;;5022763;28;58846;-67
2023/06/16 14:05:12;;;;;;;2.17;2.03;;;;;;;;;;5024860;28;58316;-67
2023/06/16 14:07:37;;;;;;;1.73;1.63;;;;;;;;;;5024063;28;58745;-67
2023/06/16 14:10:03;;;;;;;2.40;1.97;;;;;;;;;;5024792;28;58626;-66
2023/06/16 14:12:28;;;;;;;1.52;1.10;;;;;;;;;;5019346;28;58353;-67
2023/06/16 14:14:53;;;;;;;2.43;1.50;;;;;;;;;;5024837;28;58480;-67
2023/06/16 14:17:18;;;;;;;4.05;2.00;;;;;;;;;;5023222;28;58530;-67
2023/06/16 14:19:43;;;;;;;1.60;1.50;;;;;;;;;;5026218;28;58805;-67
2023/06/16 14:22:08;;;;;;;2.40;1.90;;;;;;;;;;5025022;28;58666;-67
2023/06/16 14:24:34;;;;;;;1.60;1.50;;;;;;;;;;5024386;28;58909;-62
2023/06/16 14:26:59;;;;;;;1.48;1.20;;;;;;;;;;5023748;28;59017;-63
2023/06/16 14:29:24;;;;;;;1.50;1.40;;;;;;;;;;5023551;28;59228;-63
2023/06/16 14:31:49;;;;;;;1.80;1.53;;;;;;;;;;5025504;28;58384;-63
2023/06/16 14:34:14;;;;;;;1.60;1.50;;;;;;;;;;5021286;28;58286;-63
2023/06/16 14:36:39;;;;;;;2.40;2.27;;;;;;;;;;5022248;28;59213;-64
2023/06/16 14:39:05;;;;;;;1.52;1.42;;;;;;;;;;5022762;28;58552;-64
2023/06/16 14:41:30;;;;;;;2.00;1.90;;;;;;;;;;5021522;28;58381;-64
2023/06/16 14:43:55;;;;;;;1.50;1.40;;;;;;;;;;5023061;28;58613;-63
2023/06/16 14:46:20;;;;;;;2.13;1.80;;;;;;;;;;5021362;28;58708;-63
2023/06/16 14:48:46;;;;;;;1.73;1.63;;;;;;;;;;5024357;28;58397;-65
2023/06/16 14:51:11;;;;;;;2.13;1.90;;;;;;;;;;5023617;28;58529;-66
2023/06/16 14:53:36;;;;;;;2.00;1.83;;;;;;;;;;5019128;28;58392;-62
2023/06/16 14:56:01;;;;;;;1.87;1.50;;;;;;;;;;5020213;28;58587;-64
2023/06/16 14:58:26;;;;;;;2.43;1.83;;;;;;;;;;5022549;28;58213;-63
2023/06/16 15:00:53;;;;;;;1.70;1.60;;;;;;;;;;5024705;28;58560;-64
2023/06/16 15:03:19;;;;;;;2.45;1.75;;;;;;;;;;5021681;28;58353;-64
2023/06/16 15:05:44;;;;;;;2.50;2.00;;;;;;;;;;5022743;28;58701;-63
2023/06/16 15:08:09;;;;;;;2.05;1.40;;;;;;;;;;5020533;28;58954;-64
2023/06/16 15:10:35;;;;;;;1.23;1.23;;;;;;;;;;5020319;28;58412;-62
2023/06/16 15:13:01;;;;;;;1.50;1.40;;;;;;;;;;5024932;28;58809;-64
2023/06/16 15:15:26;;;;;;;1.63;1.50;;;;;;;;;;5022199;28;58685;-63
2023/06/16 15:17:51;;;;;;;2.40;1.20;;;;;;;;;;5022893;28;58440;-63
2023/06/16 15:20:16;;;;;;;1.93;1.83;;;;;;;;;;5023261;28;58124;-63
2023/06/16 15:22:41;;;;;;;1.70;1.13;;;;;;;;;;5023506;28;58475;-64
2023/06/16 15:25:08;;;;;;;1.43;1.30;;;;;;;;;;5025258;28;58421;-64
2023/06/16 15:27:33;;;;;;;2.03;1.65;;;;;;;;;;5021576;28;59899;-63
2023/06/16 15:29:58;;;;;;;2.27;2.07;;;;;;;;;;5024248;28;58325;-63
2023/06/16 15:32:23;;;;;;;2.05;1.25;;;;;;;;;;5021164;28;58369;-63
2023/06/16 15:34:49;;;;;;;1.70;1.60;;;;;;;;;;5023361;28;58738;-63
2023/06/16 15:37:14;;;;;;;1.63;1.53;;;;;;;;;;5021627;28;58330;-63
2023/06/16 15:39:39;;;;;;;1.20;1.20;;;;;;;;;;5021491;28;58212;-63
2023/06/16 15:42:04;;;;;;;1.60;1.50;;;;;;;;;;5022148;28;58392;-63
2023/06/16 15:44:29;;;;;;;1.87;1.47;;;;;;;;;;5023678;28;58455;-66
2023/06/16 15:46:55;;;;;;;1.97;1.53;;;;;;;;;;5021505;28;58838;-63
2023/06/16 15:49:20;;;;;;;1.42;1.30;;;;;;;;;;5020227;28;58786;-60
2023/06/16 15:51:45;;;;;;;1.50;1.40;;;;;;;;;;5020786;28;58502;-60
2023/06/16 15:54:11;;;;;;;1.50;1.40;;;;;;;;;;5020513;28;58456;-64
2023/06/16 15:56:36;;;;;;;1.90;1.67;;;;;;;;;;5015790;28;59630;-63
2023/06/16 15:59:01;;;;;;;1.80;1.35;;;;;;;;;;5019923;28;58659;-63